sensor_id;sensor_type;location;lat;lon;timestamp;P1;durP1;ratioP1;P2;durP2;ratioP2
15504;SDS011;7854;52.184;5.942;2023-07-30T00:04:26;6;;;1;;
15504;SDS011;7854;52.184;5.942;2023-07-30T00:04:26;2;;;1;;
15504;SDS011;7854;52.184;5.942;2023-07-30T00:04:38;2;;;1;;
15504;SDS011;7854;52.184;5.942;2023-07-30T00:06:52;3;;;1;;
15504;SDS011;7854;52.184;5.942;2023-07-30T00:09:07;10;;;1;;
15504;SDS011;7854;52.184;5.942;2023-07-30T00:11:22;8;;;1;;
15504;SDS011;7854;52.184;5.942;2023-07-30T00:13:36;10;;;1;;
15504;SDS011;7854;52.184;5.942;2023-07-30T00:15:50;3;;;1;;
15504;SDS011;7854;52.184;5.942;2023-07-30T00:18:04;8;;;2;;
15504;SDS011;7854;52.184;5.942;2023-07-30T00:20:18;6;;;1;;
15504;SDS011;7854;52.184;5.942;2023-07-30T00:22:33;2;;;1;;
15504;SDS011;7854;52.184;5.942;2023-07-30T00:24:48;5;;;2;;
15504;SDS011;7854;52.184;5.942;2023-07-30T00:27:02;2;;;2;;
15504;SDS011;7854;52.184;5.942;2023-07-30T00:29:16;3;;;2;;
15504;SDS011;7854;52.184;5.942;2023-07-30T00:31:31;10;;;2;;
15504;SDS011;7854;52.184;5.942;2023-07-30T00:33:45;4;;;3;;
15504;SDS011;7854;52.184;5.942;2023-07-30T00:36:00;7;;;2;;
15504;SDS011;7854;52.184;5.942;2023-07-30T00:38:14;11;;;2;;
15504;SDS011;7854;52.184;5.942;2023-07-30T00:40:28;11;;;1;;
15504;SDS011;7854;52.184;5.942;2023-07-30T00:42:43;5;;;3;;
15504;SDS011;7854;52.184;5.942;2023-07-30T00:44:58;2;;;2;;
15504;SDS011;7854;52.184;5.942;2023-07-30T00:47:12;3;;;2;;
15504;SDS011;7854;52.184;5.942;2023-07-30T00:49:27;7;;;2;;
15504;SDS011;7854;52.184;5.942;2023-07-30T00:51:41;9;;;3;;
15504;SDS011;7854;52.184;5.942;2023-07-30T00:53:55;14;;;2;;
15504;SDS011;7854;52.184;5.942;2023-07-30T00:56:10;2;;;2;;
15504;SDS011;7854;52.184;5.942;2023-07-30T00:58:24;9;;;3;;
15504;SDS011;7854;52.184;5.942;2023-07-30T01:00:39;3;;;2;;
15504;SDS011;7854;52.184;5.942;2023-07-30T01:02:53;13;;;2;;
15504;SDS011;7854;52.184;5.942;2023-07-30T01:05:08;9;;;3;;
15504;SDS011;7854;52.184;5.942;2023-07-30T01:07:22;3;;;2;;
15504;SDS011;7854;52.184;5.942;2023-07-30T01:09:37;10;;;3;;
15504;SDS011;7854;52.184;5.942;2023-07-30T01:11:51;3;;;2;;
15504;SDS011;7854;52.184;5.942;2023-07-30T01:14:05;6;;;3;;
15504;SDS011;7854;52.184;5.942;2023-07-30T01:16:20;6;;;2;;
15504;SDS011;7854;52.184;5.942;2023-07-30T01:18:34;3;;;2;;
15504;SDS011;7854;52.184;5.942;2023-07-30T01:20:52;9;;;3;;
15504;SDS011;7854;52.184;5.942;2023-07-30T01:23:03;4;;;3;;
15504;SDS011;7854;52.184;5.942;2023-07-30T01:25:18;3;;;3;;
15504;SDS011;7854;52.184;5.942;2023-07-30T01:27:33;3;;;2;;
15504;SDS011;7854;52.184;5.942;2023-07-30T01:29:48;3;;;3;;
15504;SDS011;7854;52.184;5.942;2023-07-30T01:32:02;7;;;3;;
15504;SDS011;7854;52.184;5.942;2023-07-30T01:34:16;4;;;2;;
15504;SDS011;7854;52.184;5.942;2023-07-30T01:36:30;5;;;2;;
15504;SDS011;7854;52.184;5.942;2023-07-30T01:38:44;12;;;5;;
15504;SDS011;7854;52.184;5.942;2023-07-30T01:40:58;7;;;2;;
15504;SDS011;7854;52.184;5.942;2023-07-30T01:43:13;4;;;3;;
15504;SDS011;7854;52.184;5.942;2023-07-30T01:45:28;7;;;3;;
15504;SDS011;7854;52.184;5.942;2023-07-30T01:47:42;6;;;3;;
15504;SDS011;7854;52.184;5.942;2023-07-30T01:49:57;7;;;2;;
15504;SDS011;7854;52.184;5.942;2023-07-30T01:52:11;6;;;3;;
15504;SDS011;7854;52.184;5.942;2023-07-30T01:54:25;4;;;3;;
15504;SDS011;7854;52.184;5.942;2023-07-30T01:56:40;2;;;2;;
15504;SDS011;7854;52.184;5.942;2023-07-30T01:58:55;6;;;2;;
15504;SDS011;7854;52.184;5.942;2023-07-30T02:01:08;10;;;2;;
15504;SDS011;7854;52.184;5.942;2023-07-30T02:03:24;6;;;2;;
15504;SDS011;7854;52.184;5.942;2023-07-30T02:05:38;4;;;2;;
15504;SDS011;7854;52.184;5.942;2023-07-30T02:07:52;6;;;2;;
15504;SDS011;7854;52.184;5.942;2023-07-30T02:10:06;2;;;2;;
15504;SDS011;7854;52.184;5.942;2023-07-30T02:12:21;6;;;3;;
15504;SDS011;7854;52.184;5.942;2023-07-30T02:14:35;4;;;2;;
15504;SDS011;7854;52.184;5.942;2023-07-30T02:16:50;3;;;2;;
15504;SDS011;7854;52.184;5.942;2023-07-30T02:19:04;2;;;2;;
15504;SDS011;7854;52.184;5.942;2023-07-30T02:21:18;7;;;2;;
15504;SDS011;7854;52.184;5.942;2023-07-30T02:23:32;5;;;2;;
15504;SDS011;7854;52.184;5.942;2023-07-30T02:25:47;8;;;2;;
15504;SDS011;7854;52.184;5.942;2023-07-30T02:28:02;2;;;2;;
15504;SDS011;7854;52.184;5.942;2023-07-30T02:30:15;4;;;2;;
15504;SDS011;7854;52.184;5.942;2023-07-30T02:32:30;6;;;2;;
15504;SDS011;7854;52.184;5.942;2023-07-30T02:34:44;4;;;2;;
15504;SDS011;7854;52.184;5.942;2023-07-30T02:36:59;2;;;2;;
15504;SDS011;7854;52.184;5.942;2023-07-30T02:39:13;7;;;3;;
15504;SDS011;7854;52.184;5.942;2023-07-30T02:41:28;10;;;3;;
15504;SDS011;7854;52.184;5.942;2023-07-30T02:43:42;7;;;2;;
15504;SDS011;7854;52.184;5.942;2023-07-30T02:45:56;3;;;2;;
15504;SDS011;7854;52.184;5.942;2023-07-30T02:48:11;5;;;2;;
15504;SDS011;7854;52.184;5.942;2023-07-30T02:50:25;4;;;3;;
15504;SDS011;7854;52.184;5.942;2023-07-30T02:52:40;5;;;2;;
15504;SDS011;7854;52.184;5.942;2023-07-30T02:54:54;10;;;3;;
15504;SDS011;7854;52.184;5.942;2023-07-30T02:57:09;4;;;2;;
15504;SDS011;7854;52.184;5.942;2023-07-30T02:59:23;2;;;2;;
15504;SDS011;7854;52.184;5.942;2023-07-30T03:01:38;2;;;2;;
15504;SDS011;7854;52.184;5.942;2023-07-30T03:03:55;4;;;2;;
15504;SDS011;7854;52.184;5.942;2023-07-30T03:06:07;5;;;2;;
15504;SDS011;7854;52.184;5.942;2023-07-30T03:08:22;4;;;2;;
15504;SDS011;7854;52.184;5.942;2023-07-30T03:10:36;3;;;3;;
15504;SDS011;7854;52.184;5.942;2023-07-30T03:12:51;10;;;3;;
15504;SDS011;7854;52.184;5.942;2023-07-30T03:15:04;6;;;2;;
15504;SDS011;7854;52.184;5.942;2023-07-30T03:17:21;6;;;2;;
15504;SDS011;7854;52.184;5.942;2023-07-30T03:19:33;5;;;2;;
15504;SDS011;7854;52.184;5.942;2023-07-30T03:21:48;7;;;2;;
15504;SDS011;7854;52.184;5.942;2023-07-30T03:24:02;13;;;2;;
15504;SDS011;7854;52.184;5.942;2023-07-30T03:26:17;3;;;3;;
15504;SDS011;7854;52.184;5.942;2023-07-30T03:28:32;13;;;2;;
15504;SDS011;7854;52.184;5.942;2023-07-30T03:30:47;5;;;2;;
15504;SDS011;7854;52.184;5.942;2023-07-30T03:35:14;7;;;3;;
15504;SDS011;7854;52.184;5.942;2023-07-30T03:37:29;7;;;3;;
15504;SDS011;7854;52.184;5.942;2023-07-30T03:39:43;8;;;4;;
15504;SDS011;7854;52.184;5.942;2023-07-30T03:41:58;4;;;2;;
15504;SDS011;7854;52.184;5.942;2023-07-30T03:44:12;7;;;3;;
15504;SDS011;7854;52.184;5.942;2023-07-30T03:46:27;9;;;3;;
15504;SDS011;7854;52.184;5.942;2023-07-30T03:48:41;10;;;3;;
15504;SDS011;7854;52.184;5.942;2023-07-30T03:50:56;9;;;6;;
15504;SDS011;7854;52.184;5.942;2023-07-30T03:53:10;4;;;3;;
15504;SDS011;7854;52.184;5.942;2023-07-30T03:55:25;7;;;4;;
15504;SDS011;7854;52.184;5.942;2023-07-30T03:57:39;11;;;4;;
15504;SDS011;7854;52.184;5.942;2023-07-30T03:59:53;4;;;2;;
15504;SDS011;7854;52.184;5.942;2023-07-30T04:02:07;6;;;3;;
15504;SDS011;7854;52.184;5.942;2023-07-30T04:04:22;10;;;4;;
15504;SDS011;7854;52.184;5.942;2023-07-30T04:06:36;9;;;3;;
15504;SDS011;7854;52.184;5.942;2023-07-30T04:08:51;5;;;3;;
15504;SDS011;7854;52.184;5.942;2023-07-30T04:11:05;5;;;3;;
15504;SDS011;7854;52.184;5.942;2023-07-30T04:13:20;5;;;4;;
15504;SDS011;7854;52.184;5.942;2023-07-30T04:15:35;13;;;4;;
15504;SDS011;7854;52.184;5.942;2023-07-30T04:17:49;13;;;4;;
15504;SDS011;7854;52.184;5.942;2023-07-30T04:20:04;24;;;6;;
15504;SDS011;7854;52.184;5.942;2023-07-30T04:22:18;9;;;5;;
15504;SDS011;7854;52.184;5.942;2023-07-30T04:24:32;8;;;4;;
15504;SDS011;7854;52.184;5.942;2023-07-30T04:26:47;10;;;4;;
15504;SDS011;7854;52.184;5.942;2023-07-30T04:29:01;18;;;5;;
15504;SDS011;7854;52.184;5.942;2023-07-30T04:31:16;9;;;5;;
15504;SDS011;7854;52.184;5.942;2023-07-30T04:33:30;15;;;4;;
15504;SDS011;7854;52.184;5.942;2023-07-30T04:35:45;19;;;5;;
15504;SDS011;7854;52.184;5.942;2023-07-30T04:37:59;16;;;5;;
15504;SDS011;7854;52.184;5.942;2023-07-30T04:42:27;20;;;5;;
15504;SDS011;7854;52.184;5.942;2023-07-30T04:44:41;9;;;5;;
15504;SDS011;7854;52.184;5.942;2023-07-30T04:46:56;8;;;7;;
15504;SDS011;7854;52.184;5.942;2023-07-30T04:49:10;13;;;6;;
15504;SDS011;7854;52.184;5.942;2023-07-30T04:51:25;18;;;6;;
15504;SDS011;7854;52.184;5.942;2023-07-30T04:53:39;20;;;5;;
15504;SDS011;7854;52.184;5.942;2023-07-30T04:55:55;18;;;6;;
15504;SDS011;7854;52.184;5.942;2023-07-30T04:58:08;20;;;7;;
15504;SDS011;7854;52.184;5.942;2023-07-30T05:00:23;27;;;6;;
15504;SDS011;7854;52.184;5.942;2023-07-30T05:02:36;24;;;6;;
15504;SDS011;7854;52.184;5.942;2023-07-30T05:04:50;17;;;7;;
15504;SDS011;7854;52.184;5.942;2023-07-30T05:07:05;22;;;6;;
15504;SDS011;7854;52.184;5.942;2023-07-30T05:09:19;12;;;5;;
15504;SDS011;7854;52.184;5.942;2023-07-30T05:11:33;18;;;6;;
15504;SDS011;7854;52.184;5.942;2023-07-30T05:13:48;23;;;7;;
15504;SDS011;7854;52.184;5.942;2023-07-30T05:16:03;20;;;7;;
15504;SDS011;7854;52.184;5.942;2023-07-30T05:18:17;18;;;6;;
15504;SDS011;7854;52.184;5.942;2023-07-30T05:20:31;17;;;5;;
15504;SDS011;7854;52.184;5.942;2023-07-30T05:22:46;21;;;6;;
15504;SDS011;7854;52.184;5.942;2023-07-30T05:25:00;29;;;7;;
15504;SDS011;7854;52.184;5.942;2023-07-30T05:27:15;13;;;5;;
15504;SDS011;7854;52.184;5.942;2023-07-30T05:29:30;18;;;6;;
15504;SDS011;7854;52.184;5.942;2023-07-30T05:31:44;28;;;8;;
15504;SDS011;7854;52.184;5.942;2023-07-30T05:33:58;25;;;6;;
15504;SDS011;7854;52.184;5.942;2023-07-30T05:36:13;40;;;8;;
15504;SDS011;7854;52.184;5.942;2023-07-30T05:38:27;25;;;7;;
15504;SDS011;7854;52.184;5.942;2023-07-30T05:40:42;28;;;6;;
15504;SDS011;7854;52.184;5.942;2023-07-30T05:42:56;12;;;5;;
15504;SDS011;7854;52.184;5.942;2023-07-30T05:45:11;17;;;7;;
15504;SDS011;7854;52.184;5.942;2023-07-30T05:47:25;13;;;6;;
15504;SDS011;7854;52.184;5.942;2023-07-30T05:49:39;12;;;5;;
15504;SDS011;7854;52.184;5.942;2023-07-30T05:51:54;15;;;5;;
15504;SDS011;7854;52.184;5.942;2023-07-30T05:54:08;11;;;5;;
15504;SDS011;7854;52.184;5.942;2023-07-30T05:56:23;25;;;7;;
15504;SDS011;7854;52.184;5.942;2023-07-30T05:58:37;17;;;6;;
15504;SDS011;7854;52.184;5.942;2023-07-30T06:00:51;16;;;6;;
15504;SDS011;7854;52.184;5.942;2023-07-30T06:03:06;29;;;7;;
15504;SDS011;7854;52.184;5.942;2023-07-30T06:05:20;21;;;6;;
15504;SDS011;7854;52.184;5.942;2023-07-30T06:07:34;34;;;6;;
15504;SDS011;7854;52.184;5.942;2023-07-30T06:09:49;27;;;7;;
15504;SDS011;7854;52.184;5.942;2023-07-30T06:12:04;13;;;5;;
15504;SDS011;7854;52.184;5.942;2023-07-30T06:14:18;20;;;5;;
15504;SDS011;7854;52.184;5.942;2023-07-30T06:16:33;18;;;5;;
15504;SDS011;7854;52.184;5.942;2023-07-30T06:18:47;14;;;6;;
15504;SDS011;7854;52.184;5.942;2023-07-30T06:21:02;15;;;5;;
15504;SDS011;7854;52.184;5.942;2023-07-30T06:23:16;24;;;5;;
15504;SDS011;7854;52.184;5.942;2023-07-30T06:25:30;10;;;6;;
15504;SDS011;7854;52.184;5.942;2023-07-30T06:27:45;15;;;5;;
15504;SDS011;7854;52.184;5.942;2023-07-30T06:29:59;27;;;6;;
15504;SDS011;7854;52.184;5.942;2023-07-30T06:32:14;11;;;5;;
15504;SDS011;7854;52.184;5.942;2023-07-30T06:34:28;23;;;6;;
15504;SDS011;7854;52.184;5.942;2023-07-30T06:36:43;23;;;6;;
15504;SDS011;7854;52.184;5.942;2023-07-30T06:38:57;12;;;4;;
15504;SDS011;7854;52.184;5.942;2023-07-30T06:41:11;12;;;5;;
15504;SDS011;7854;52.184;5.942;2023-07-30T06:43:26;18;;;5;;
15504;SDS011;7854;52.184;5.942;2023-07-30T06:45:40;12;;;5;;
15504;SDS011;7854;52.184;5.942;2023-07-30T06:47:55;10;;;4;;
15504;SDS011;7854;52.184;5.942;2023-07-30T06:50:09;11;;;5;;
15504;SDS011;7854;52.184;5.942;2023-07-30T06:52:23;21;;;5;;
15504;SDS011;7854;52.184;5.942;2023-07-30T06:54:38;16;;;7;;
15504;SDS011;7854;52.184;5.942;2023-07-30T06:56:53;14;;;6;;
15504;SDS011;7854;52.184;5.942;2023-07-30T06:59:07;15;;;6;;
15504;SDS011;7854;52.184;5.942;2023-07-30T07:01:22;14;;;4;;
15504;SDS011;7854;52.184;5.942;2023-07-30T07:03:36;22;;;6;;
15504;SDS011;7854;52.184;5.942;2023-07-30T07:05:52;11;;;4;;
15504;SDS011;7854;52.184;5.942;2023-07-30T07:08:05;7;;;4;;
15504;SDS011;7854;52.184;5.942;2023-07-30T07:10:19;6;;;4;;
15504;SDS011;7854;52.184;5.942;2023-07-30T07:12:34;9;;;5;;
15504;SDS011;7854;52.184;5.942;2023-07-30T07:14:48;18;;;6;;
15504;SDS011;7854;52.184;5.942;2023-07-30T07:17:03;19;;;5;;
15504;SDS011;7854;52.184;5.942;2023-07-30T07:19:17;22;;;4;;
15504;SDS011;7854;52.184;5.942;2023-07-30T07:23:46;7;;;4;;
15504;SDS011;7854;52.184;5.942;2023-07-30T07:26:00;27;;;7;;
15504;SDS011;7854;52.184;5.942;2023-07-30T07:28:14;19;;;4;;
15504;SDS011;7854;52.184;5.942;2023-07-30T07:30:28;8;;;4;;
15504;SDS011;7854;52.184;5.942;2023-07-30T07:32:43;26;;;4;;
15504;SDS011;7854;52.184;5.942;2023-07-30T07:34:57;23;;;4;;
15504;SDS011;7854;52.184;5.942;2023-07-30T07:37:11;7;;;3;;
15504;SDS011;7854;52.184;5.942;2023-07-30T07:39:27;16;;;4;;
15504;SDS011;7854;52.184;5.942;2023-07-30T07:41:41;16;;;4;;
15504;SDS011;7854;52.184;5.942;2023-07-30T07:43:55;20;;;5;;
15504;SDS011;7854;52.184;5.942;2023-07-30T07:46:09;13;;;4;;
15504;SDS011;7854;52.184;5.942;2023-07-30T07:48:24;19;;;5;;
15504;SDS011;7854;52.184;5.942;2023-07-30T07:50:38;12;;;4;;
15504;SDS011;7854;52.184;5.942;2023-07-30T07:52:54;12;;;4;;
15504;SDS011;7854;52.184;5.942;2023-07-30T07:55:08;11;;;3;;
15504;SDS011;7854;52.184;5.942;2023-07-30T07:59:37;18;;;5;;
15504;SDS011;7854;52.184;5.942;2023-07-30T08:01:51;14;;;4;;
15504;SDS011;7854;52.184;5.942;2023-07-30T08:04:05;15;;;6;;
15504;SDS011;7854;52.184;5.942;2023-07-30T08:06:19;10;;;4;;
15504;SDS011;7854;52.184;5.942;2023-07-30T08:08:34;6;;;3;;
15504;SDS011;7854;52.184;5.942;2023-07-30T08:10:48;6;;;4;;
15504;SDS011;7854;52.184;5.942;2023-07-30T08:13:03;23;;;5;;
15504;SDS011;7854;52.184;5.942;2023-07-30T08:15:17;7;;;3;;
15504;SDS011;7854;52.184;5.942;2023-07-30T08:17:31;5;;;3;;
15504;SDS011;7854;52.184;5.942;2023-07-30T08:19:46;10;;;3;;
15504;SDS011;7854;52.184;5.942;2023-07-30T08:22:00;9;;;3;;
15504;SDS011;7854;52.184;5.942;2023-07-30T08:24:15;10;;;3;;
15504;SDS011;7854;52.184;5.942;2023-07-30T08:26:29;8;;;3;;
15504;SDS011;7854;52.184;5.942;2023-07-30T08:28:44;7;;;2;;
15504;SDS011;7854;52.184;5.942;2023-07-30T08:31:00;9;;;3;;
15504;SDS011;7854;52.184;5.942;2023-07-30T08:33:13;7;;;3;;
15504;SDS011;7854;52.184;5.942;2023-07-30T08:37:42;7;;;3;;
15504;SDS011;7854;52.184;5.942;2023-07-30T08:39:57;7;;;2;;
15504;SDS011;7854;52.184;5.942;2023-07-30T08:44:25;12;;;3;;
15504;SDS011;7854;52.184;5.942;2023-07-30T08:46:39;8;;;2;;
15504;SDS011;7854;52.184;5.942;2023-07-30T08:48:59;5;;;2;;
15504;SDS011;7854;52.184;5.942;2023-07-30T08:51:20;14;;;3;;
15504;SDS011;7854;52.184;5.942;2023-07-30T08:53:40;6;;;2;;
15504;SDS011;7854;52.184;5.942;2023-07-30T08:56:01;5;;;1;;
15504;SDS011;7854;52.184;5.942;2023-07-30T09:00:36;8;;;2;;
15504;SDS011;7854;52.184;5.942;2023-07-30T09:02:49;9;;;3;;
15504;SDS011;7854;52.184;5.942;2023-07-30T09:05:15;6;;;2;;
15504;SDS011;7854;52.184;5.942;2023-07-30T09:07:44;5;;;2;;
15504;SDS011;7854;52.184;5.942;2023-07-30T09:10:09;19;;;3;;
15504;SDS011;7854;52.184;5.942;2023-07-30T09:12:29;4;;;2;;
15504;SDS011;7854;52.184;5.942;2023-07-30T09:14:50;3;;;1;;
15504;SDS011;7854;52.184;5.942;2023-07-30T09:17:10;2;;;1;;
15504;SDS011;7854;52.184;5.942;2023-07-30T09:19:33;9;;;2;;
15504;SDS011;7854;52.184;5.942;2023-07-30T09:21:51;9;;;1;;
15504;SDS011;7854;52.184;5.942;2023-07-30T09:24:11;6;;;2;;
15504;SDS011;7854;52.184;5.942;2023-07-30T09:26:25;5;;;2;;
15504;SDS011;7854;52.184;5.942;2023-07-30T09:28:40;7;;;2;;
15504;SDS011;7854;52.184;5.942;2023-07-30T09:30:59;9;;;3;;
15504;SDS011;7854;52.184;5.942;2023-07-30T09:33:08;12;;;3;;
15504;SDS011;7854;52.184;5.942;2023-07-30T09:35:23;11;;;2;;
15504;SDS011;7854;52.184;5.942;2023-07-30T09:37:38;4;;;2;;
15504;SDS011;7854;52.184;5.942;2023-07-30T09:39:52;4;;;1;;
15504;SDS011;7854;52.184;5.942;2023-07-30T09:42:06;4;;;1;;
15504;SDS011;7854;52.184;5.942;2023-07-30T09:44:21;6;;;2;;
15504;SDS011;7854;52.184;5.942;2023-07-30T09:46:38;3;;;1;;
15504;SDS011;7854;52.184;5.942;2023-07-30T09:48:49;4;;;1;;
15504;SDS011;7854;52.184;5.942;2023-07-30T09:51:04;4;;;2;;
15504;SDS011;7854;52.184;5.942;2023-07-30T09:53:18;14;;;2;;
15504;SDS011;7854;52.184;5.942;2023-07-30T09:55:33;4;;;2;;
15504;SDS011;7854;52.184;5.942;2023-07-30T09:57:47;11;;;2;;
15504;SDS011;7854;52.184;5.942;2023-07-30T10:00:03;3;;;1;;
15504;SDS011;7854;52.184;5.942;2023-07-30T10:02:16;3;;;2;;
15504;SDS011;7854;52.184;5.942;2023-07-30T10:04:30;9;;;2;;
15504;SDS011;7854;52.184;5.942;2023-07-30T10:06:46;4;;;1;;
15504;SDS011;7854;52.184;5.942;2023-07-30T10:09:00;7;;;1;;
15504;SDS011;7854;52.184;5.942;2023-07-30T10:11:14;4;;;2;;
15504;SDS011;7854;52.184;5.942;2023-07-30T10:13:28;8;;;2;;
15504;SDS011;7854;52.184;5.942;2023-07-30T10:15:43;7;;;2;;
15504;SDS011;7854;52.184;5.942;2023-07-30T10:17:57;4;;;1;;
15504;SDS011;7854;52.184;5.942;2023-07-30T10:20:19;3;;;1;;
15504;SDS011;7854;52.184;5.942;2023-07-30T10:22:26;2;;;1;;
15504;SDS011;7854;52.184;5.942;2023-07-30T10:24:41;6;;;1;;
15504;SDS011;7854;52.184;5.942;2023-07-30T10:26:55;6;;;2;;
15504;SDS011;7854;52.184;5.942;2023-07-30T10:29:10;4;;;1;;
15504;SDS011;7854;52.184;5.942;2023-07-30T10:31:24;3;;;1;;
15504;SDS011;7854;52.184;5.942;2023-07-30T10:33:46;6;;;2;;
15504;SDS011;7854;52.184;5.942;2023-07-30T10:35:54;5;;;2;;
15504;SDS011;7854;52.184;5.942;2023-07-30T10:38:15;10;;;2;;
15504;SDS011;7854;52.184;5.942;2023-07-30T10:40:22;7;;;2;;
15504;SDS011;7854;52.184;5.942;2023-07-30T10:42:36;4;;;1;;
15504;SDS011;7854;52.184;5.942;2023-07-30T10:44:51;6;;;1;;
15504;SDS011;7854;52.184;5.942;2023-07-30T10:47:05;4;;;1;;
15504;SDS011;7854;52.184;5.942;2023-07-30T10:49:19;2;;;1;;
15504;SDS011;7854;52.184;5.942;2023-07-30T10:51:34;4;;;1;;
15504;SDS011;7854;52.184;5.942;2023-07-30T10:53:50;3;;;1;;
15504;SDS011;7854;52.184;5.942;2023-07-30T10:56:03;2;;;1;;
15504;SDS011;7854;52.184;5.942;2023-07-30T10:58:17;3;;;1;;
15504;SDS011;7854;52.184;5.942;2023-07-30T11:00:31;2;;;0;;
15504;SDS011;7854;52.184;5.942;2023-07-30T11:02:52;2;;;1;;
15504;SDS011;7854;52.184;5.942;2023-07-30T11:05:10;5;;;1;;
15504;SDS011;7854;52.184;5.942;2023-07-30T11:07:16;5;;;1;;
15504;SDS011;7854;52.184;5.942;2023-07-30T11:09:30;2;;;1;;
15504;SDS011;7854;52.184;5.942;2023-07-30T11:11:44;8;;;1;;
15504;SDS011;7854;52.184;5.942;2023-07-30T11:13:58;3;;;1;;
15504;SDS011;7854;52.184;5.942;2023-07-30T11:16:13;2;;;1;;
15504;SDS011;7854;52.184;5.942;2023-07-30T11:18:27;1;;;0;;
15504;SDS011;7854;52.184;5.942;2023-07-30T11:20:42;2;;;1;;
15504;SDS011;7854;52.184;5.942;2023-07-30T11:22:56;3;;;1;;
15504;SDS011;7854;52.184;5.942;2023-07-30T11:25:15;4;;;1;;
15504;SDS011;7854;52.184;5.942;2023-07-30T11:27:25;5;;;1;;
15504;SDS011;7854;52.184;5.942;2023-07-30T11:31:56;2;;;0;;
15504;SDS011;7854;52.184;5.942;2023-07-30T11:34:08;2;;;1;;
15504;SDS011;7854;52.184;5.942;2023-07-30T11:36:23;3;;;1;;
15504;SDS011;7854;52.184;5.942;2023-07-30T11:38:38;2;;;1;;
15504;SDS011;7854;52.184;5.942;2023-07-30T11:40:52;3;;;0;;
15504;SDS011;7854;52.184;5.942;2023-07-30T11:43:06;2;;;0;;
15504;SDS011;7854;52.184;5.942;2023-07-30T11:45:21;1;;;1;;
15504;SDS011;7854;52.184;5.942;2023-07-30T11:47:34;2;;;1;;
15504;SDS011;7854;52.184;5.942;2023-07-30T11:49:54;2;;;0;;
15504;SDS011;7854;52.184;5.942;2023-07-30T11:52:04;1;;;0;;
15504;SDS011;7854;52.184;5.942;2023-07-30T11:54:18;2;;;0;;
15504;SDS011;7854;52.184;5.942;2023-07-30T11:56:32;2;;;1;;
15504;SDS011;7854;52.184;5.942;2023-07-30T11:58:46;3;;;1;;
15504;SDS011;7854;52.184;5.942;2023-07-30T12:01:00;3;;;0;;
15504;SDS011;7854;52.184;5.942;2023-07-30T12:05:31;2;;;0;;
15504;SDS011;7854;52.184;5.942;2023-07-30T12:07:46;4;;;0;;
15504;SDS011;7854;52.184;5.942;2023-07-30T12:10:06;3;;;0;;
15504;SDS011;7854;52.184;5.942;2023-07-30T12:12:13;2;;;1;;
15504;SDS011;7854;52.184;5.942;2023-07-30T12:14:28;11;;;1;;
15504;SDS011;7854;52.184;5.942;2023-07-30T12:16:42;1;;;0;;
15504;SDS011;7854;52.184;5.942;2023-07-30T12:18:56;3;;;1;;
15504;SDS011;7854;52.184;5.942;2023-07-30T12:21:12;2;;;0;;
15504;SDS011;7854;52.184;5.942;2023-07-30T12:23:25;2;;;1;;
15504;SDS011;7854;52.184;5.942;2023-07-30T12:25:39;6;;;1;;
15504;SDS011;7854;52.184;5.942;2023-07-30T12:27:54;2;;;1;;
15504;SDS011;7854;52.184;5.942;2023-07-30T12:30:09;1;;;0;;
15504;SDS011;7854;52.184;5.942;2023-07-30T12:32:23;3;;;1;;
15504;SDS011;7854;52.184;5.942;2023-07-30T12:34:37;2;;;1;;
15504;SDS011;7854;52.184;5.942;2023-07-30T12:36:51;2;;;1;;
15504;SDS011;7854;52.184;5.942;2023-07-30T12:39:05;1;;;0;;
15504;SDS011;7854;52.184;5.942;2023-07-30T12:41:20;1;;;0;;
15504;SDS011;7854;52.184;5.942;2023-07-30T12:43:34;3;;;1;;
15504;SDS011;7854;52.184;5.942;2023-07-30T12:48:03;2;;;0;;
15504;SDS011;7854;52.184;5.942;2023-07-30T12:50:18;1;;;0;;
15504;SDS011;7854;52.184;5.942;2023-07-30T12:52:33;4;;;0;;
15504;SDS011;7854;52.184;5.942;2023-07-30T12:54:46;1;;;0;;
15504;SDS011;7854;52.184;5.942;2023-07-30T12:57:01;0;;;0;;
15504;SDS011;7854;52.184;5.942;2023-07-30T12:59:15;2;;;1;;
15504;SDS011;7854;52.184;5.942;2023-07-30T13:01:30;3;;;0;;
15504;SDS011;7854;52.184;5.942;2023-07-30T13:03:44;1;;;0;;
15504;SDS011;7854;52.184;5.942;2023-07-30T13:05:59;2;;;0;;
15504;SDS011;7854;52.184;5.942;2023-07-30T13:08:13;1;;;0;;
15504;SDS011;7854;52.184;5.942;2023-07-30T13:10:27;2;;;0;;
15504;SDS011;7854;52.184;5.942;2023-07-30T13:12:41;1;;;0;;
15504;SDS011;7854;52.184;5.942;2023-07-30T13:14:55;3;;;0;;
15504;SDS011;7854;52.184;5.942;2023-07-30T13:17:10;2;;;0;;
15504;SDS011;7854;52.184;5.942;2023-07-30T13:19:25;1;;;0;;
15504;SDS011;7854;52.184;5.942;2023-07-30T13:21:39;3;;;0;;
15504;SDS011;7854;52.184;5.942;2023-07-30T13:23:53;1;;;0;;
15504;SDS011;7854;52.184;5.942;2023-07-30T13:26:08;1;;;0;;
15504;SDS011;7854;52.184;5.942;2023-07-30T13:28:24;14;;;1;;
15504;SDS011;7854;52.184;5.942;2023-07-30T13:30:37;2;;;0;;
15504;SDS011;7854;52.184;5.942;2023-07-30T13:32:51;3;;;0;;
15504;SDS011;7854;52.184;5.942;2023-07-30T13:35:06;2;;;0;;
15504;SDS011;7854;52.184;5.942;2023-07-30T13:37:20;1;;;0;;
15504;SDS011;7854;52.184;5.942;2023-07-30T13:39:34;2;;;0;;
15504;SDS011;7854;52.184;5.942;2023-07-30T13:41:49;2;;;0;;
15504;SDS011;7854;52.184;5.942;2023-07-30T13:44:03;3;;;0;;
15504;SDS011;7854;52.184;5.942;2023-07-30T13:46:18;1;;;0;;
15504;SDS011;7854;52.184;5.942;2023-07-30T13:48:32;1;;;0;;
15504;SDS011;7854;52.184;5.942;2023-07-30T13:50:46;1;;;0;;
15504;SDS011;7854;52.184;5.942;2023-07-30T13:53:01;1;;;0;;
15504;SDS011;7854;52.184;5.942;2023-07-30T13:55:16;1;;;1;;
15504;SDS011;7854;52.184;5.942;2023-07-30T13:57:30;1;;;0;;
15504;SDS011;7854;52.184;5.942;2023-07-30T13:59:44;1;;;0;;
15504;SDS011;7854;52.184;5.942;2023-07-30T14:01:59;5;;;0;;
15504;SDS011;7854;52.184;5.942;2023-07-30T14:04:13;1;;;0;;
15504;SDS011;7854;52.184;5.942;2023-07-30T14:06:28;1;;;0;;
15504;SDS011;7854;52.184;5.942;2023-07-30T14:08:42;0;;;0;;
15504;SDS011;7854;52.184;5.942;2023-07-30T14:10:57;2;;;0;;
15504;SDS011;7854;52.184;5.942;2023-07-30T14:13:11;0;;;0;;
15504;SDS011;7854;52.184;5.942;2023-07-30T14:15:26;4;;;0;;
15504;SDS011;7854;52.184;5.942;2023-07-30T14:17:40;3;;;0;;
15504;SDS011;7854;52.184;5.942;2023-07-30T14:19:55;2;;;0;;
15504;SDS011;7854;52.184;5.942;2023-07-30T14:22:09;0;;;0;;
15504;SDS011;7854;52.184;5.942;2023-07-30T14:24:23;0;;;0;;
15504;SDS011;7854;52.184;5.942;2023-07-30T14:26:38;2;;;0;;
15504;SDS011;7854;52.184;5.942;2023-07-30T14:28:52;3;;;1;;
15504;SDS011;7854;52.184;5.942;2023-07-30T14:31:06;4;;;0;;
15504;SDS011;7854;52.184;5.942;2023-07-30T14:33:21;2;;;1;;
15504;SDS011;7854;52.184;5.942;2023-07-30T14:35:35;5;;;0;;
15504;SDS011;7854;52.184;5.942;2023-07-30T14:37:50;1;;;0;;
15504;SDS011;7854;52.184;5.942;2023-07-30T14:40:05;1;;;0;;
15504;SDS011;7854;52.184;5.942;2023-07-30T14:42:19;1;;;0;;
15504;SDS011;7854;52.184;5.942;2023-07-30T14:44:33;2;;;1;;
15504;SDS011;7854;52.184;5.942;2023-07-30T14:46:48;1;;;0;;
15504;SDS011;7854;52.184;5.942;2023-07-30T14:49:02;4;;;0;;
15504;SDS011;7854;52.184;5.942;2023-07-30T14:51:16;0;;;0;;
15504;SDS011;7854;52.184;5.942;2023-07-30T14:53:30;4;;;1;;
15504;SDS011;7854;52.184;5.942;2023-07-30T14:55:44;7;;;0;;
15504;SDS011;7854;52.184;5.942;2023-07-30T14:57:59;0;;;0;;
15504;SDS011;7854;52.184;5.942;2023-07-30T15:00:13;3;;;1;;
15504;SDS011;7854;52.184;5.942;2023-07-30T15:02:28;1;;;0;;
15504;SDS011;7854;52.184;5.942;2023-07-30T15:04:42;1;;;0;;
15504;SDS011;7854;52.184;5.942;2023-07-30T15:06:57;2;;;0;;
15504;SDS011;7854;52.184;5.942;2023-07-30T15:09:11;1;;;0;;
15504;SDS011;7854;52.184;5.942;2023-07-30T15:11:26;4;;;0;;
15504;SDS011;7854;52.184;5.942;2023-07-30T15:13:40;3;;;0;;
15504;SDS011;7854;52.184;5.942;2023-07-30T15:15:55;1;;;0;;
15504;SDS011;7854;52.184;5.942;2023-07-30T15:18:09;0;;;0;;
15504;SDS011;7854;52.184;5.942;2023-07-30T15:20:24;4;;;0;;
15504;SDS011;7854;52.184;5.942;2023-07-30T15:22:38;2;;;0;;
15504;SDS011;7854;52.184;5.942;2023-07-30T15:24:53;2;;;0;;